Woodburn, Mississippi
Current Conditions -  °F | °C
As of 5:53 PM on Monday 24 Nov 2014 (Local Time) from KGLH Reporting Station
Clear Clear  
Wind Chill: 51°   Ceiling: Unl
Heat Index: 51°   Visibility: 8mi
Dew Point: 34°   Wind: 5mph
Humidity: 52%   Direction: 270°W
Pressure: 30.01"   Gusts: NA
Location:  33.4825°N, 90.6856°W
Report Text: KGLH 242353Z AUTO 27004KT 8SM CLR 11/01 A3001 RMK AO2 SLP171 T01060011 10156 20100 53019
Loading
Personal Weather Stations






























Interactive Weather Map New forecast layout! Learn more

10-Day Weather Forecast

Advertisements
Track Severe Weather on mobile